Time;durP1;ratioP1;P1;durP2;ratioP2;P2;SDS_P1;SDS_P2;PMS_P1;PMS_P2;Temp;Humidity;BMP_temperature;BMP_pressure;BME280_temperature;BME280_humidity;BME280_pressure;Samples;Min_cycle;Max_cycle;Signal;HPM_P1;HPM_P2
2022/01/14 14:28:03;;;;;;;42.33;23.63;;;;;;;;;;5103823;27;20440;-80
2022/01/14 14:30:32;;;;;;;28.52;18.27;;;;;;;;;;5094304;27;20045;-79
2022/01/14 14:32:58;;;;;;;36.72;23.48;;;;;;;;;;5090423;28;20026;-78
2022/01/14 14:35:23;;;;;;;27.08;15.57;;;;;;;;;;5093718;28;20020;-80
2022/01/14 14:37:51;;;;;;;25.13;15.65;;;;;;;;;;5090420;28;20030;-78
2022/01/14 14:40:21;;;;;;;26.95;17.33;;;;;;;;;;5090081;28;20476;-78
2022/01/14 14:42:46;;;;;;;;;;;;;;;;;;5092714;28;20028;-78
2022/01/14 14:45:12;;;;;;;25.58;17.33;;;;;;;;;;5102027;28;19906;-79
2022/01/14 14:47:38;;;;;;;21.27;14.35;;;;;;;;;;5112563;27;20032;-77
2022/01/14 14:50:04;;;;;;;23.17;16.55;;;;;;;;;;5112620;27;20021;-78
2022/01/14 14:52:29;;;;;;;23.05;17.52;;;;;;;;;;5111594;28;20027;-78
2022/01/14 14:54:55;;;;;;;20.98;13.63;;;;;;;;;;5105862;28;20019;-78
2022/01/14 14:57:21;;;;;;;20.00;14.80;;;;;;;;;;5102105;28;20055;-78
2022/01/14 14:59:46;;;;;;;21.23;15.13;;;;;;;;;;5113034;27;20524;-78
2022/01/14 15:02:13;;;;;;;21.10;16.55;;;;;;;;;;5112497;27;20015;-78
2022/01/14 15:04:39;;;;;;;26.75;18.50;;;;;;;;;;5112553;28;20109;-78
2022/01/14 15:07:05;;;;;;;42.00;25.45;;;;;;;;;;5111287;28;20023;-79
2022/01/14 15:09:30;;;;;;;39.03;25.92;;;;;;;;;;5112576;27;20072;-78
2022/01/14 15:11:56;;;;;;;93.47;58.90;;;;;;;;;;5111187;28;20027;-79
2022/01/14 15:14:22;;;;;;;172.20;89.00;;;;;;;;;;5111133;28;20138;-79
2022/01/14 15:19:13;;;;;;;50.30;28.05;;;;;;;;;;5112470;27;20026;-78
2022/01/14 15:21:39;;;;;;;42.72;29.20;;;;;;;;;;5112947;27;20038;-79
2022/01/14 15:24:04;;;;;;;53.53;33.25;;;;;;;;;;5110982;28;20484;-80
2022/01/14 15:26:30;;;;;;;82.00;47.78;;;;;;;;;;5110702;28;20751;-78
2022/01/14 15:28:56;;;;;;;96.50;54.35;;;;;;;;;;5110415;28;20104;-79
2022/01/14 15:31:22;;;;;;;95.22;56.70;;;;;;;;;;5112288;27;20026;-78
2022/01/14 15:33:48;;;;;;;76.13;43.97;;;;;;;;;;5111325;28;20023;-79
2022/01/14 15:36:13;;;;;;;58.42;36.17;;;;;;;;;;5110362;28;20093;-78
2022/01/14 15:38:38;;;;;;;52.75;33.92;;;;;;;;;;5103238;27;20044;-77
2022/01/14 15:41:04;;;;;;;66.43;42.35;;;;;;;;;;5097175;28;20457;-79
2022/01/14 15:43:30;;;;;;;39.72;25.63;;;;;;;;;;5098567;28;20073;-78
2022/01/14 15:45:56;;;;;;;41.55;25.90;;;;;;;;;;5099204;28;20452;-78
2022/01/14 15:48:21;;;;;;;36.92;22.80;;;;;;;;;;5096985;28;20458;-77
2022/01/14 15:50:46;;;;;;;81.43;41.95;;;;;;;;;;5094607;28;20057;-79
2022/01/14 15:53:12;;;;;;;55.63;32.10;;;;;;;;;;5088851;28;20028;-78
2022/01/14 15:55:37;;;;;;;50.70;28.58;;;;;;;;;;5076474;28;20032;-76
2022/01/14 15:58:03;;;;;;;226.18;100.25;;;;;;;;;;5075771;28;20028;-79
2022/01/14 16:00:28;;;;;;;141.68;68.35;;;;;;;;;;5075940;28;20054;-78
2022/01/14 16:02:53;;;;;;;73.68;40.22;;;;;;;;;;5075994;28;20027;-78
2022/01/14 16:05:19;;;;;;;72.32;43.15;;;;;;;;;;5075808;28;20012;-78
2022/01/14 16:07:44;;;;;;;48.50;33.60;;;;;;;;;;5073181;28;20065;-77
2022/01/14 16:10:10;;;;;;;45.78;30.45;;;;;;;;;;5057381;28;20367;-79
2022/01/14 16:12:38;;;;;;;68.85;44.70;;;;;;;;;;5056605;28;20345;-77
2022/01/14 16:15:07;;;;;;;52.55;35.08;;;;;;;;;;5058528;28;20842;-79
2022/01/14 16:17:33;;;;;;;79.03;52.25;;;;;;;;;;5057173;28;20198;-79
2022/01/14 16:19:58;;;;;;;52.78;33.40;;;;;;;;;;5055348;28;20031;-79
2022/01/14 16:22:25;;;;;;;58.22;38.92;;;;;;;;;;5055969;28;20117;-79
2022/01/14 16:24:50;;;;;;;62.70;39.95;;;;;;;;;;5055091;28;20027;-80
2022/01/14 16:27:16;;;;;;;89.95;54.53;;;;;;;;;;5063890;28;20044;-81
2022/01/14 16:29:41;;;;;;;112.00;58.90;;;;;;;;;;5075804;28;20463;-79
2022/01/14 16:32:06;;;;;;;74.13;42.25;;;;;;;;;;5075448;28;20051;-78
2022/01/14 16:34:33;;;;;;;63.03;36.95;;;;;;;;;;5076025;28;20055;-77
2022/01/14 16:36:58;;;;;;;80.50;45.53;;;;;;;;;;5077164;28;20507;-78
2022/01/14 16:39:23;;;;;;;77.88;44.30;;;;;;;;;;5075104;28;20028;-79
2022/01/14 16:41:49;;;;;;;100.93;60.60;;;;;;;;;;5075412;28;20073;-79
2022/01/14 16:44:15;;;;;;;219.77;131.57;;;;;;;;;;5074703;28;20023;-77
2022/01/14 16:46:40;;;;;;;183.18;107.57;;;;;;;;;;5077063;28;20028;-78
2022/01/14 16:49:09;;;;;;;362.15;214.93;;;;;;;;;;5075927;28;20091;-78
2022/01/14 16:51:35;;;;;;;197.15;112.85;;;;;;;;;;5073899;28;20024;-77
2022/01/14 16:54:01;;;;;;;230.13;138.05;;;;;;;;;;5075225;28;20057;-78
2022/01/14 16:56:26;;;;;;;238.50;149.40;;;;;;;;;;5075065;28;20020;-78
2022/01/14 16:58:52;;;;;;;168.20;101.32;;;;;;;;;;5076600;28;20016;-78
2022/01/14 17:01:17;;;;;;;133.30;82.53;;;;;;;;;;5074948;28;20027;-78
2022/01/14 17:03:44;;;;;;;134.00;82.93;;;;;;;;;;5073738;28;20039;-79
2022/01/14 17:06:10;;;;;;;296.38;167.13;;;;;;;;;;5075865;28;20032;-79
2022/01/14 17:08:36;;;;;;;214.13;128.43;;;;;;;;;;5075765;28;20027;-78
2022/01/14 17:11:01;;;;;;;214.75;125.72;;;;;;;;;;5074817;28;20016;-78
2022/01/14 17:13:27;;;;;;;146.13;86.70;;;;;;;;;;5075060;28;20016;-77
2022/01/14 17:15:52;;;;;;;141.68;84.28;;;;;;;;;;5074332;28;20432;-78
2022/01/14 17:18:18;;;;;;;111.22;70.70;;;;;;;;;;5074757;28;20018;-78
2022/01/14 17:20:43;;;;;;;154.15;90.72;;;;;;;;;;5074361;28;20047;-77
2022/01/14 17:23:12;;;;;;;114.78;69.13;;;;;;;;;;5075516;28;20023;-76
2022/01/14 17:25:40;;;;;;;111.65;69.90;;;;;;;;;;5075806;28;20016;-79
2022/01/14 17:28:06;;;;;;;216.68;149.35;;;;;;;;;;5074083;28;20031;-77
2022/01/14 17:30:32;;;;;;;338.95;189.77;;;;;;;;;;5073909;28;20016;-78
2022/01/14 17:32:57;;;;;;;415.73;220.80;;;;;;;;;;5073672;28;20027;-79
2022/01/14 17:35:22;;;;;;;420.90;212.30;;;;;;;;;;5076146;28;20024;-78
2022/01/14 17:37:48;;;;;;;233.88;117.07;;;;;;;;;;5077026;28;20386;-78
2022/01/14 17:40:13;;;;;;;147.98;82.13;;;;;;;;;;5083246;28;20016;-79
2022/01/14 17:42:39;;;;;;;129.95;76.43;;;;;;;;;;5075471;28;20361;-79
2022/01/14 17:45:04;;;;;;;166.10;93.95;;;;;;;;;;5074513;28;20468;-78
2022/01/14 17:47:30;;;;;;;184.43;105.25;;;;;;;;;;5073729;28;20444;-79
2022/01/14 17:49:55;;;;;;;152.35;89.75;;;;;;;;;;5074357;28;20127;-78
2022/01/14 17:52:21;;;;;;;215.57;119.45;;;;;;;;;;5074055;28;20020;-78
2022/01/14 17:54:46;;;;;;;199.98;106.35;;;;;;;;;;5075137;28;20467;-78
2022/01/14 17:57:12;;;;;;;121.88;73.22;;;;;;;;;;5073610;28;20023;-78
2022/01/14 17:59:37;;;;;;;213.75;115.35;;;;;;;;;;5075301;28;20026;-78
2022/01/14 18:02:03;;;;;;;158.70;85.07;;;;;;;;;;5079931;28;20016;-77
2022/01/14 18:04:28;;;;;;;111.50;67.47;;;;;;;;;;5086974;28;20020;-78
2022/01/14 18:06:55;;;;;;;91.13;54.83;;;;;;;;;;5063705;28;20017;-78
2022/01/14 18:09:21;;;;;;;85.88;57.10;;;;;;;;;;5057127;28;20486;-77
2022/01/14 18:12:04;;;;;;;74.85;46.38;;;;;;;;;;5057247;28;20061;-77
2022/01/14 18:14:32;;;;;;;164.45;88.47;;;;;;;;;;5054939;28;20019;-77
2022/01/14 18:16:58;;;;;;;312.05;149.32;;;;;;;;;;5054219;28;20025;-77
2022/01/14 18:19:23;;;;;;;127.95;74.45;;;;;;;;;;5071019;28;20107;-77
2022/01/14 18:21:49;;;;;;;160.60;87.60;;;;;;;;;;5070168;28;20028;-76
2022/01/14 18:24:23;;;;;;;175.35;91.82;;;;;;;;;;5061324;28;20091;-79
2022/01/14 18:26:48;;;;;;;707.70;425.60;;;;;;;;;;5074341;28;20478;-77
2022/01/14 18:29:13;;;;;;;596.25;325.40;;;;;;;;;;5074791;28;20074;-76
2022/01/14 18:31:44;;;;;;;451.25;211.63;;;;;;;;;;5075975;28;20431;-79
2022/01/14 18:34:14;;;;;;;206.45;109.15;;;;;;;;;;5076198;28;20449;-79
2022/01/14 18:36:40;;;;;;;100.05;60.28;;;;;;;;;;5075212;28;20027;-76
2022/01/14 18:39:05;;;;;;;50.17;30.23;;;;;;;;;;5074890;28;20020;-78
2022/01/14 18:41:36;;;;;;;161.77;99.47;;;;;;;;;;5076051;28;20024;-76
2022/01/14 18:44:04;;;;;;;100.28;58.30;;;;;;;;;;5077741;28;20028;-78
2022/01/14 18:46:30;;;;;;;85.93;53.28;;;;;;;;;;5075497;28;20090;-75
2022/01/14 18:49:00;;;;;;;85.40;55.63;;;;;;;;;;5075752;28;20043;-76
2022/01/14 18:51:26;;;;;;;276.10;156.88;;;;;;;;;;5073240;28;20016;-76
2022/01/14 18:54:03;;;;;;;144.15;87.80;;;;;;;;;;5075195;28;20074;-79
2022/01/14 18:56:29;;;;;;;126.45;84.45;;;;;;;;;;5074855;28;20024;-77
2022/01/14 18:58:56;;;;;;;148.65;97.22;;;;;;;;;;5070205;28;20031;-77
2022/01/14 19:01:21;;;;;;;177.57;112.45;;;;;;;;;;5074046;28;20466;-77
2022/01/14 19:03:47;;;;;;;120.75;79.55;;;;;;;;;;5073102;28;20020;-78
2022/01/14 19:06:13;;;;;;;90.22;56.25;;;;;;;;;;5071210;28;20032;-76
2022/01/14 19:08:38;;;;;;;103.63;68.30;;;;;;;;;;5058090;28;20032;-77
2022/01/14 19:11:05;;;;;;;138.98;86.88;;;;;;;;;;5053467;28;20094;-77
2022/01/14 19:13:31;;;;;;;135.20;84.43;;;;;;;;;;5054181;28;20473;-77
2022/01/14 19:15:57;;;;;;;107.45;67.03;;;;;;;;;;5074180;28;20015;-77
2022/01/14 19:18:22;;;;;;;188.80;117.22;;;;;;;;;;5075429;28;20016;-77
2022/01/14 19:20:48;;;;;;;198.68;111.15;;;;;;;;;;5081568;28;20105;-79
2022/01/14 19:23:13;;;;;;;210.55;114.68;;;;;;;;;;5077024;28;20439;-79
2022/01/14 19:25:38;;;;;;;212.75;115.47;;;;;;;;;;5077733;28;20361;-79
2022/01/14 19:28:04;;;;;;;233.48;126.70;;;;;;;;;;5076005;28;20032;-77
2022/01/14 19:30:29;;;;;;;135.82;76.45;;;;;;;;;;5077857;28;20406;-77
2022/01/14 19:32:54;;;;;;;126.85;76.55;;;;;;;;;;5078282;28;20055;-77
2022/01/14 19:35:22;;;;;;;123.18;74.85;;;;;;;;;;5077202;28;20024;-76
2022/01/14 19:37:47;;;;;;;161.00;95.95;;;;;;;;;;5076757;28;20455;-78
2022/01/14 19:40:13;;;;;;;153.18;89.53;;;;;;;;;;5076490;28;20048;-77
2022/01/14 19:42:38;;;;;;;255.40;131.80;;;;;;;;;;5077718;28;20186;-77
2022/01/14 19:45:04;;;;;;;540.40;322.70;;;;;;;;;;5076627;28;20048;-78
2022/01/14 19:47:31;;;;;;;257.63;142.45;;;;;;;;;;5077423;28;20028;-77
2022/01/14 19:49:56;;;;;;;306.50;167.02;;;;;;;;;;5077787;28;20044;-76
2022/01/14 19:52:22;;;;;;;248.82;142.63;;;;;;;;;;5076353;28;20463;-77
2022/01/14 19:54:48;;;;;;;441.02;269.52;;;;;;;;;;5076129;28;20016;-77
2022/01/14 19:57:14;;;;;;;375.05;211.18;;;;;;;;;;5077967;28;20454;-77
2022/01/14 19:59:39;;;;;;;188.18;118.30;;;;;;;;;;5078086;28;20023;-76
2022/01/14 20:02:06;;;;;;;114.55;69.05;;;;;;;;;;5076880;28;20016;-77
2022/01/14 20:04:32;;;;;;;110.40;66.13;;;;;;;;;;5076170;28;20015;-78
2022/01/14 20:06:57;;;;;;;183.23;100.57;;;;;;;;;;5076186;28;20073;-78
2022/01/14 20:09:22;;;;;;;157.15;93.38;;;;;;;;;;5075404;28;20110;-76
2022/01/14 20:11:48;;;;;;;164.82;96.47;;;;;;;;;;5075911;28;20022;-77
2022/01/14 20:14:13;;;;;;;161.93;92.07;;;;;;;;;;5076092;28;20465;-79
2022/01/14 20:16:40;;;;;;;162.98;100.15;;;;;;;;;;5075674;28;20366;-80
2022/01/14 20:19:06;;;;;;;141.13;83.90;;;;;;;;;;5077054;28;20073;-75
2022/01/14 20:21:31;;;;;;;105.38;61.35;;;;;;;;;;5075800;28;20024;-75
2022/01/14 20:23:57;;;;;;;91.82;54.72;;;;;;;;;;5075381;28;20023;-78
2022/01/14 20:26:22;;;;;;;170.65;101.93;;;;;;;;;;5077438;28;20067;-78
2022/01/14 20:28:47;;;;;;;118.65;68.18;;;;;;;;;;5077163;28;20038;-77
2022/01/14 20:31:13;;;;;;;90.95;54.72;;;;;;;;;;5075393;28;20043;-78
2022/01/14 20:33:39;;;;;;;123.00;70.30;;;;;;;;;;5073326;28;20954;-77
2022/01/14 20:36:07;;;;;;;153.68;91.43;;;;;;;;;;5069861;28;20048;-78
2022/01/14 20:38:32;;;;;;;129.13;69.35;;;;;;;;;;5065343;28;20039;-78
2022/01/14 20:40:58;;;;;;;217.75;108.45;;;;;;;;;;5066537;28;20048;-76
2022/01/14 20:43:29;;;;;;;241.88;140.48;;;;;;;;;;5066137;28;20016;-79
2022/01/14 20:45:55;;;;;;;125.10;73.38;;;;;;;;;;5063690;28;20567;-78
2022/01/14 20:48:21;;;;;;;113.50;61.70;;;;;;;;;;5064677;28;20115;-78
2022/01/14 20:50:47;;;;;;;168.05;85.13;;;;;;;;;;5063164;28;20036;-79
2022/01/14 20:53:12;;;;;;;159.00;81.63;;;;;;;;;;5063983;28;20078;-79
2022/01/14 20:55:38;;;;;;;130.15;70.53;;;;;;;;;;5059740;28;20459;-78
2022/01/14 20:58:04;;;;;;;151.73;75.00;;;;;;;;;;5056427;28;20027;-78
2022/01/14 21:00:29;;;;;;;158.55;66.28;;;;;;;;;;5063546;28;20020;-79
2022/01/14 21:02:55;;;;;;;138.02;57.28;;;;;;;;;;5075458;28;20046;-76
2022/01/14 21:05:20;;;;;;;128.60;51.45;;;;;;;;;;5075977;28;20024;-77
2022/01/14 21:07:46;;;;;;;126.53;67.00;;;;;;;;;;5075422;28;20032;-76
2022/01/14 21:10:12;;;;;;;218.63;128.88;;;;;;;;;;5070820;28;20386;-78
2022/01/14 21:12:39;;;;;;;214.93;124.95;;;;;;;;;;5066259;28;20027;-76
2022/01/14 21:15:05;;;;;;;154.45;82.00;;;;;;;;;;5074845;28;20455;-77
2022/01/14 21:17:36;;;;;;;313.83;145.55;;;;;;;;;;5074215;28;20053;-77
2022/01/14 21:20:03;;;;;;;159.05;78.97;;;;;;;;;;5076942;28;20917;-76
2022/01/14 21:22:30;;;;;;;112.28;48.17;;;;;;;;;;5074386;28;20024;-76
2022/01/14 21:24:55;;;;;;;173.82;85.28;;;;;;;;;;5069513;28;20024;-76
2022/01/14 21:27:21;;;;;;;206.93;117.78;;;;;;;;;;5067306;28;20078;-77
2022/01/14 21:29:46;;;;;;;100.82;62.30;;;;;;;;;;5064702;28;20115;-77
2022/01/14 21:32:11;;;;;;;157.13;93.85;;;;;;;;;;5066428;28;20054;-77
2022/01/14 21:34:37;;;;;;;131.55;78.03;;;;;;;;;;5073375;28;20540;-76
2022/01/14 21:37:03;;;;;;;113.68;63.10;;;;;;;;;;5071149;28;20059;-77
2022/01/14 21:39:28;;;;;;;172.48;104.13;;;;;;;;;;5073503;28;20044;-77
2022/01/14 21:41:54;;;;;;;140.25;82.75;;;;;;;;;;5074221;28;20047;-77
2022/01/14 21:44:19;;;;;;;193.50;108.72;;;;;;;;;;5071159;28;20032;-76
2022/01/14 21:46:45;;;;;;;160.43;89.53;;;;;;;;;;5064687;28;20031;-75
2022/01/14 21:49:10;;;;;;;197.63;116.97;;;;;;;;;;5063170;28;20027;-77
2022/01/14 21:51:36;;;;;;;222.35;122.80;;;;;;;;;;5063293;28;20455;-75
2022/01/14 21:54:02;;;;;;;224.27;124.57;;;;;;;;;;5064021;28;20526;-78
2022/01/14 21:56:28;;;;;;;182.23;96.32;;;;;;;;;;5053423;28;20103;-77
2022/01/14 21:58:54;;;;;;;280.52;119.65;;;;;;;;;;5052928;28;20044;-76
2022/01/14 22:04:23;;;;;;;193.68;107.15;;;;;;;;;;5058759;28;20031;-77
2022/01/14 22:06:48;;;;;;;147.25;80.53;;;;;;;;;;5074028;28;20028;-76
2022/01/14 22:09:14;;;;;;;58.20;33.05;;;;;;;;;;5071912;28;20027;-78
2022/01/14 22:11:39;;;;;;;48.67;29.92;;;;;;;;;;5068639;28;20023;-77
2022/01/14 22:14:09;;;;;;;182.30;93.57;;;;;;;;;;5063742;28;21038;-77
2022/01/14 22:16:34;;;;;;;130.90;66.20;;;;;;;;;;5063330;28;20964;-77
2022/01/14 22:18:59;;;;;;;91.43;51.28;;;;;;;;;;5062566;28;20089;-77
2022/01/14 22:21:26;;;;;;;83.90;47.17;;;;;;;;;;5062274;28;20020;-78
2022/01/14 22:23:52;;;;;;;49.60;27.08;;;;;;;;;;5069570;28;20031;-79
2022/01/14 22:26:18;;;;;;;76.28;45.88;;;;;;;;;;5075409;28;20091;-78
2022/01/14 22:28:43;;;;;;;81.93;52.88;;;;;;;;;;5073205;28;20447;-78
2022/01/14 22:31:08;;;;;;;68.10;36.13;;;;;;;;;;5073595;28;20077;-78
2022/01/14 22:33:34;;;;;;;57.08;33.38;;;;;;;;;;5073890;28;20052;-78
2022/01/14 22:36:02;;;;;;;56.08;34.45;;;;;;;;;;5074619;28;20012;-79
2022/01/14 22:38:27;;;;;;;40.33;26.67;;;;;;;;;;5073466;28;20358;-78
2022/01/14 22:40:53;;;;;;;94.35;51.50;;;;;;;;;;5074523;28;20023;-77
2022/01/14 22:43:18;;;;;;;131.52;72.93;;;;;;;;;;5073370;28;20116;-78
2022/01/14 22:45:45;;;;;;;100.93;56.47;;;;;;;;;;5075775;28;20508;-77
2022/01/14 22:48:11;;;;;;;78.55;46.70;;;;;;;;;;5082282;28;20081;-78
2022/01/14 22:50:37;;;;;;;60.33;36.60;;;;;;;;;;5067498;28;20032;-78
2022/01/14 22:53:03;;;;;;;59.15;36.33;;;;;;;;;;5065452;28;20024;-77
2022/01/14 22:55:28;;;;;;;49.83;29.33;;;;;;;;;;5068333;28;20023;-76
2022/01/14 22:57:54;;;;;;;45.28;27.02;;;;;;;;;;5065650;28;20016;-78
2022/01/14 23:00:21;;;;;;;42.58;28.83;;;;;;;;;;5073657;28;20266;-77
2022/01/14 23:02:46;;;;;;;38.90;25.27;;;;;;;;;;5077536;28;20024;-78
2022/01/14 23:05:13;;;;;;;54.78;34.22;;;;;;;;;;5078319;28;20376;-78
2022/01/14 23:07:39;;;;;;;52.50;27.77;;;;;;;;;;5077036;28;20508;-78
2022/01/14 23:10:05;;;;;;;35.22;19.77;;;;;;;;;;5077143;28;20024;-79
2022/01/14 23:12:31;;;;;;;32.28;20.55;;;;;;;;;;5077196;28;20102;-79
2022/01/14 23:14:57;;;;;;;63.28;32.70;;;;;;;;;;5078545;28;20748;-80
2022/01/14 23:17:22;;;;;;;46.42;26.42;;;;;;;;;;5078192;28;20028;-79
2022/01/14 23:19:47;;;;;;;38.38;23.33;;;;;;;;;;5076698;28;20800;-79
2022/01/14 23:22:12;;;;;;;42.00;26.52;;;;;;;;;;5078176;28;20016;-78
2022/01/14 23:24:39;;;;;;;47.42;25.52;;;;;;;;;;5078846;28;20016;-79
2022/01/14 23:27:04;;;;;;;23.70;14.00;;;;;;;;;;5077908;28;20043;-79
2022/01/14 23:29:30;;;;;;;42.55;22.25;;;;;;;;;;5070645;28;20020;-79
2022/01/14 23:31:57;;;;;;;29.15;16.00;;;;;;;;;;5065019;28;20016;-79
2022/01/14 23:34:23;;;;;;;20.40;12.30;;;;;;;;;;5066081;28;20012;-79
2022/01/14 23:36:48;;;;;;;20.15;12.63;;;;;;;;;;5067765;28;20039;-79
2022/01/14 23:39:14;;;;;;;17.85;11.93;;;;;;;;;;5062652;28;20145;-79
2022/01/14 23:41:39;;;;;;;26.85;16.45;;;;;;;;;;5056373;28;20363;-80
2022/01/14 23:44:34;;;;;;;35.08;17.83;;;;;;;;;;5057334;28;20020;-79
2022/01/14 23:49:27;;;;;;;24.85;15.35;;;;;;;;;;5057661;28;20104;-77
2022/01/14 23:51:53;;;;;;;20.65;12.40;;;;;;;;;;5056495;28;20029;-80
2022/01/14 23:54:19;;;;;;;19.15;11.15;;;;;;;;;;5056971;28;20028;-77
2022/01/14 23:56:44;;;;;;;17.65;10.73;;;;;;;;;;5057040;28;20079;-77
2022/01/14 23:59:10;;;;;;;14.65;9.50;;;;;;;;;;5055516;28;20046;-77
